createdAt,value
2023-03-17T00:02:07.474Z,9.68
2023-03-17T00:04:35.838Z,9.61
2023-03-17T00:07:04.092Z,9.45
2023-03-17T00:09:32.835Z,9.43
2023-03-17T00:12:01.037Z,9.47
2023-03-17T00:14:30.883Z,9.43
2023-03-17T00:16:58.963Z,9.40
2023-03-17T00:19:30.825Z,9.37
2023-03-17T00:21:59.152Z,9.42
2023-03-17T00:24:28.336Z,9.44
2023-03-17T00:26:56.535Z,9.39
2023-03-17T00:29:25.359Z,9.33
2023-03-17T00:31:55.210Z,9.32
2023-03-17T00:34:24.326Z,9.36
2023-03-17T00:36:52.432Z,9.31
2023-03-17T00:39:20.827Z,9.25
2023-03-17T00:41:49.053Z,9.25
2023-03-17T00:44:17.412Z,9.18
2023-03-17T00:46:46.356Z,9.02
2023-03-17T00:51:46.392Z,9.03
2023-03-17T00:54:16.426Z,9.06
2023-03-17T00:56:45.501Z,9.12
2023-03-17T00:59:20.698Z,9.20
2023-03-17T01:01:49.797Z,9.17
2023-03-17T01:04:19.933Z,9.11
2023-03-17T01:06:49.493Z,9.15
2023-03-17T01:09:21.445Z,9.20
2023-03-17T01:11:50.067Z,9.19
2023-03-17T01:14:18.440Z,9.20
2023-03-17T01:16:48.077Z,9.17
2023-03-17T01:19:16.785Z,9.20
2023-03-17T01:21:47.954Z,9.12
2023-03-17T01:24:16.088Z,9.11
2023-03-17T01:26:44.590Z,9.10
2023-03-17T01:29:13.816Z,9.14
2023-03-17T01:31:42.299Z,9.13
2023-03-17T01:34:11.493Z,9.10
2023-03-17T01:36:41.304Z,9.19
2023-03-17T01:39:10.944Z,9.18
2023-03-17T01:41:40.027Z,9.36
2023-03-17T01:44:10.834Z,9.37
2023-03-17T01:46:39.150Z,9.41
2023-03-17T01:49:11.435Z,9.47
2023-03-17T01:51:44.122Z,9.47
2023-03-17T01:54:17.698Z,9.57
2023-03-17T01:56:46.693Z,9.66
2023-03-17T01:59:19.246Z,9.66
2023-03-17T02:01:49.621Z,9.71
2023-03-17T02:04:17.943Z,9.70
2023-03-17T02:06:57.360Z,9.59
2023-03-17T02:09:29.150Z,9.55
2023-03-17T02:11:57.795Z,9.48
2023-03-17T02:14:26.434Z,9.46
2023-03-17T02:16:54.782Z,9.46
2023-03-17T02:19:23.086Z,9.45
2023-03-17T02:21:54.169Z,9.42
2023-03-17T02:24:27.441Z,9.41
2023-03-17T02:26:59.403Z,9.33
2023-03-17T02:29:27.685Z,9.31
2023-03-17T02:31:55.973Z,9.25
2023-03-17T02:34:24.022Z,9.21
2023-03-17T02:36:53.814Z,9.22
2023-03-17T02:39:22.240Z,9.12
2023-03-17T02:41:50.584Z,9.15
2023-03-17T02:44:18.873Z,9.00
2023-03-17T02:46:47.278Z,8.96
2023-03-17T02:49:15.867Z,8.96
2023-03-17T02:51:45.100Z,8.89
2023-03-17T02:54:14.741Z,8.88
2023-03-17T02:56:43.075Z,8.89
2023-03-17T02:59:11.178Z,8.84
2023-03-17T03:01:39.782Z,8.83
2023-03-17T03:04:08.623Z,8.78
2023-03-17T03:06:37.434Z,8.73
2023-03-17T03:09:05.650Z,8.65
2023-03-17T03:11:35.960Z,8.57
2023-03-17T03:14:04.078Z,8.53
2023-03-17T03:16:32.499Z,8.33
2023-03-17T03:19:00.764Z,8.23
2023-03-17T03:21:29.170Z,8.16
2023-03-17T03:23:57.508Z,8.07
2023-03-17T03:26:25.866Z,7.97
2023-03-17T03:28:57.314Z,7.97
2023-03-17T03:31:26.038Z,7.77
2023-03-17T03:33:54.148Z,7.61
2023-03-17T03:36:23.282Z,7.65
2023-03-17T03:38:51.629Z,7.54
2023-03-17T03:41:19.908Z,7.42
2023-03-17T03:43:47.943Z,7.41
2023-03-17T03:46:17.588Z,7.44
2023-03-17T03:48:45.678Z,7.36
2023-03-17T03:51:13.980Z,7.37
2023-03-17T03:53:42.033Z,7.33
2023-03-17T03:56:10.380Z,7.37
2023-03-17T03:58:38.534Z,7.44
2023-03-17T04:01:07.347Z,7.45
2023-03-17T04:03:37.436Z,7.49
2023-03-17T04:06:06.461Z,7.52
2023-03-17T04:08:34.627Z,7.55
2023-03-17T04:11:02.897Z,7.54
2023-03-17T04:13:30.955Z,7.46
2023-03-17T04:15:59.372Z,7.41
2023-03-17T04:18:27.498Z,7.31
2023-03-17T04:20:57.144Z,7.33
2023-03-17T04:23:25.322Z,7.31
2023-03-17T04:25:53.939Z,7.25
2023-03-17T04:28:22.433Z,7.19
2023-03-17T04:30:50.978Z,7.16
2023-03-17T04:33:20.201Z,7.07
2023-03-17T04:35:48.558Z,7.08
2023-03-17T04:38:18.107Z,7.08
2023-03-17T04:40:46.847Z,6.98
2023-03-17T04:43:14.865Z,7.22
2023-03-17T04:45:43.262Z,7.03
2023-03-17T04:48:11.348Z,6.85
2023-03-17T04:50:39.773Z,6.83
2023-03-17T04:53:07.907Z,6.81
2023-03-17T04:55:38.739Z,6.86
2023-03-17T04:58:06.780Z,6.78
2023-03-17T05:00:38.671Z,6.69
2023-03-17T05:03:20.049Z,6.59
2023-03-17T05:05:54.445Z,6.60
2023-03-17T05:08:22.436Z,6.68
2023-03-17T05:10:52.563Z,6.61
2023-03-17T05:13:20.662Z,6.55
2023-03-17T05:15:49.189Z,6.46
2023-03-17T05:18:17.404Z,6.26
2023-03-17T05:20:46.174Z,6.07
2023-03-17T05:23:14.493Z,6.03
2023-03-17T05:25:42.908Z,5.90
2023-03-17T05:28:12.455Z,5.63
2023-03-17T05:30:40.803Z,5.61
2023-03-17T05:33:08.933Z,5.60
2023-03-17T05:35:37.374Z,5.30
2023-03-17T05:38:05.427Z,5.42
2023-03-17T05:40:34.018Z,5.44
2023-03-17T05:43:02.387Z,5.58
2023-03-17T05:45:33.290Z,5.72
2023-03-17T05:48:01.374Z,5.85
2023-03-17T05:50:29.875Z,6.05
2023-03-17T05:52:58.097Z,6.17
2023-03-17T05:55:26.682Z,5.95
2023-03-17T05:57:54.747Z,5.87
2023-03-17T06:00:23.577Z,5.88
2023-03-17T06:02:53.003Z,5.84
2023-03-17T06:05:21.426Z,5.83
2023-03-17T06:07:54.926Z,5.80
2023-03-17T06:10:24.998Z,5.86
2023-03-17T06:12:53.056Z,6.12
2023-03-17T06:15:21.832Z,6.16
2023-03-17T06:17:50.172Z,5.99
2023-03-17T06:20:20.202Z,5.88
2023-03-17T06:23:03.372Z,5.86
2023-03-17T06:25:33.411Z,5.87
2023-03-17T06:28:03.699Z,5.94
2023-03-17T06:30:33.055Z,5.94
2023-03-17T06:33:01.546Z,5.98
2023-03-17T06:35:32.113Z,5.98
2023-03-17T06:38:01.064Z,6.05
2023-03-17T06:40:29.800Z,6.13
2023-03-17T06:42:58.049Z,6.14
2023-03-17T06:45:26.694Z,6.28
2023-03-17T06:47:54.711Z,6.29
2023-03-17T06:50:23.179Z,6.55
2023-03-17T06:52:52.640Z,6.66
2023-03-17T06:55:21.462Z,6.72
2023-03-17T06:57:51.168Z,6.81
2023-03-17T07:00:20.847Z,6.76
2023-03-17T07:02:49.385Z,6.85
2023-03-17T07:05:18.048Z,6.96
2023-03-17T07:07:46.549Z,7.01
2023-03-17T07:10:17.159Z,7.20
2023-03-17T07:12:46.019Z,7.17
2023-03-17T07:15:14.396Z,7.22
2023-03-17T07:17:42.892Z,7.35
2023-03-17T07:20:12.114Z,7.74
2023-03-17T07:22:40.364Z,7.73
2023-03-17T07:25:09.561Z,7.80
2023-03-17T07:27:39.123Z,7.84
2023-03-17T07:30:08.798Z,7.90
2023-03-17T07:32:37.477Z,8.18
2023-03-17T07:35:07.252Z,8.39
2023-03-17T07:37:35.401Z,8.47
2023-03-17T07:40:03.700Z,8.56
2023-03-17T07:42:32.166Z,8.54
2023-03-17T07:45:03.118Z,8.55
2023-03-17T07:47:31.209Z,8.36
2023-03-17T07:49:59.643Z,8.37
2023-03-17T07:52:27.709Z,8.35
2023-03-17T07:54:56.079Z,8.04
2023-03-17T07:57:24.328Z,8.13
2023-03-17T07:59:52.683Z,8.04
2023-03-17T08:02:22.250Z,8.21
2023-03-17T08:04:51.009Z,8.48
2023-03-17T08:07:19.434Z,8.51
2023-03-17T08:09:47.885Z,8.47
2023-03-17T08:12:15.985Z,8.45
2023-03-17T08:14:44.374Z,8.46
2023-03-17T08:17:13.480Z,8.31
2023-03-17T08:19:43.587Z,8.46
2023-03-17T08:22:12.326Z,8.57
2023-03-17T08:24:42.887Z,8.51
2023-03-17T08:27:11.166Z,8.56
2023-03-17T08:29:40.292Z,8.54
2023-03-17T08:32:09.475Z,8.69
2023-03-17T08:34:38.219Z,8.78
2023-03-17T08:37:11.297Z,8.94
2023-03-17T08:39:40.250Z,8.93
2023-03-17T08:42:08.363Z,9.10
2023-03-17T08:44:37.173Z,9.20
2023-03-17T08:47:05.708Z,9.33
2023-03-17T08:49:35.978Z,9.41
2023-03-17T08:52:04.155Z,9.54
2023-03-17T08:54:35.738Z,9.71
2023-03-17T08:57:04.170Z,9.83
2023-03-17T08:59:32.672Z,9.87
2023-03-17T09:02:00.887Z,9.92
2023-03-17T09:04:29.317Z,10.06
2023-03-17T09:07:04.784Z,10.26
2023-03-17T09:09:35.505Z,10.33
2023-03-17T09:12:05.578Z,10.46
2023-03-17T09:14:42.821Z,10.57
2023-03-17T09:17:11.590Z,10.72
2023-03-17T09:19:40.393Z,10.95
2023-03-17T09:22:08.827Z,11.01
2023-03-17T09:24:38.459Z,11.13
2023-03-17T09:27:06.962Z,11.26
2023-03-17T09:29:35.656Z,11.35
2023-03-17T09:32:03.730Z,11.48
2023-03-17T09:34:32.671Z,11.56
2023-03-17T09:37:00.974Z,11.64
2023-03-17T09:39:29.365Z,11.75
2023-03-17T09:42:14.550Z,11.86
2023-03-17T09:45:02.254Z,12.02
2023-03-17T09:47:49.965Z,12.32
2023-03-17T09:50:20.861Z,12.45
2023-03-17T09:52:51.355Z,12.41
2023-03-17T09:55:25.085Z,12.44
2023-03-17T09:57:55.968Z,12.57
2023-03-17T10:00:29.050Z,12.61
2023-03-17T10:02:58.361Z,12.83
2023-03-17T10:05:28.878Z,12.87
2023-03-17T10:08:02.718Z,13.04
2023-03-17T10:10:36.690Z,13.06
2023-03-17T10:13:13.402Z,13.26
2023-03-17T10:15:47.518Z,13.48
2023-03-17T10:18:17.435Z,13.44
2023-03-17T10:20:51.636Z,13.58
2023-03-17T10:23:22.132Z,13.85
2023-03-17T10:25:50.541Z,13.98
2023-03-17T10:28:27.140Z,13.88
2023-03-17T10:31:16.630Z,13.93
2023-03-17T10:33:48.109Z,13.82
2023-03-17T10:36:17.982Z,14.02
2023-03-17T10:38:52.007Z,14.16
2023-03-17T10:41:20.555Z,14.05
2023-03-17T10:43:51.733Z,14.41
2023-03-17T10:46:23.257Z,14.24
2023-03-17T10:48:53.937Z,14.41
2023-03-17T10:51:26.912Z,14.38
2023-03-17T10:53:54.934Z,14.59
2023-03-17T10:56:25.850Z,14.68
2023-03-17T10:58:56.918Z,14.88
2023-03-17T11:01:30.231Z,15.01
2023-03-17T11:04:00.405Z,15.04
2023-03-17T11:06:36.314Z,15.11
2023-03-17T11:09:10.983Z,15.18
2023-03-17T11:11:44.623Z,15.08
2023-03-17T11:14:16.196Z,15.12
2023-03-17T11:16:53.070Z,15.28
2023-03-17T11:19:23.583Z,15.48
2023-03-17T11:21:57.107Z,15.48
2023-03-17T11:24:30.468Z,15.39
2023-03-17T11:27:01.137Z,15.15
2023-03-17T11:29:49.627Z,15.24
2023-03-17T11:32:28.169Z,15.46
2023-03-17T11:35:04.752Z,15.70
2023-03-17T11:37:46.931Z,15.54
2023-03-17T11:40:21.135Z,15.53
2023-03-17T11:42:55.927Z,15.66
2023-03-17T11:45:28.464Z,15.71
2023-03-17T11:48:03.750Z,15.97
2023-03-17T11:50:36.223Z,15.97
2023-03-17T11:53:22.603Z,15.92
2023-03-17T11:55:55.734Z,15.98
2023-03-17T11:58:29.080Z,15.98
2023-03-17T12:01:01.357Z,15.86
2023-03-17T12:03:33.282Z,15.89
2023-03-17T12:06:05.667Z,16.08
2023-03-17T12:08:38.986Z,16.12
2023-03-17T12:11:13.942Z,16.20
2023-03-17T12:14:00.484Z,16.15
2023-03-17T12:16:42.708Z,16.18
2023-03-17T12:19:24.413Z,16.12
2023-03-17T12:22:08.076Z,15.99
2023-03-17T12:24:53.567Z,15.67
2023-03-17T12:27:30.857Z,16.05
2023-03-17T12:30:08.912Z,16.03
2023-03-17T12:32:42.757Z,16.14
2023-03-17T12:35:29.261Z,16.25
2023-03-17T12:37:59.934Z,16.21
2023-03-17T12:40:33.565Z,16.25
2023-03-17T12:43:30.352Z,16.28
2023-03-17T12:46:36.590Z,16.47
2023-03-17T12:49:37.091Z,16.57
2023-03-17T12:52:14.570Z,16.64
2023-03-17T12:54:47.770Z,16.71
2023-03-17T12:57:19.462Z,16.86
2023-03-17T12:59:49.751Z,16.96
2023-03-17T13:02:24.882Z,17.09
2023-03-17T13:04:58.004Z,17.12
2023-03-17T13:07:27.967Z,17.18
2023-03-17T13:10:19.875Z,17.32
2023-03-17T13:13:08.734Z,17.15
2023-03-17T13:16:00.437Z,17.11
2023-03-17T13:18:53.331Z,16.95
2023-03-17T13:21:26.377Z,17.10
2023-03-17T13:23:57.956Z,16.95
2023-03-17T13:26:54.925Z,16.81
2023-03-17T13:29:44.235Z,16.80
2023-03-17T13:32:39.902Z,16.82
2023-03-17T13:35:16.752Z,16.87
2023-03-17T13:38:23.191Z,16.65
2023-03-17T13:41:01.309Z,16.60
2023-03-17T13:43:43.356Z,16.56
2023-03-17T13:46:28.976Z,16.54
2023-03-17T13:48:57.689Z,16.47
2023-03-17T13:51:27.232Z,16.51
2023-03-17T13:53:59.028Z,16.71
2023-03-17T13:56:30.648Z,16.66
2023-03-17T13:59:11.684Z,16.42
2023-03-17T14:01:43.003Z,16.49
2023-03-17T14:04:21.614Z,16.33
2023-03-17T14:06:53.047Z,16.43
2023-03-17T14:09:36.274Z,16.43
2023-03-17T14:12:12.167Z,16.42
2023-03-17T14:14:45.757Z,16.29
2023-03-17T14:17:16.689Z,16.31
2023-03-17T14:20:04.540Z,16.38
2023-03-17T14:23:01.511Z,16.38
2023-03-17T14:25:35.590Z,16.53
2023-03-17T14:28:09.348Z,16.59
2023-03-17T14:31:05.449Z,16.66
2023-03-17T14:33:38.892Z,16.65
2023-03-17T14:36:15.489Z,16.73
2023-03-17T14:38:48.513Z,16.60
2023-03-17T14:41:22.546Z,16.59
2023-03-17T14:43:52.247Z,16.50
2023-03-17T14:46:23.465Z,16.37
2023-03-17T14:48:57.419Z,16.42
2023-03-17T14:51:28.711Z,16.22
2023-03-17T14:54:00.302Z,16.06
2023-03-17T14:56:32.834Z,16.06
2023-03-17T14:59:06.796Z,16.06
2023-03-17T15:01:37.551Z,15.97
2023-03-17T15:04:12.515Z,15.99
2023-03-17T15:06:49.514Z,15.96
2023-03-17T15:09:25.771Z,15.92
2023-03-17T15:11:57.147Z,15.92
2023-03-17T15:14:30.962Z,15.95
2023-03-17T15:16:59.368Z,15.96
2023-03-17T15:19:30.299Z,15.95
2023-03-17T15:22:00.269Z,15.90
2023-03-17T15:24:44.021Z,15.92
2023-03-17T15:27:17.682Z,15.83
2023-03-17T15:29:47.443Z,15.84
2023-03-17T15:32:17.246Z,15.83
2023-03-17T15:34:45.795Z,15.80
2023-03-17T15:37:18.644Z,15.86
2023-03-17T15:39:47.601Z,15.85
2023-03-17T15:42:19.510Z,15.80
2023-03-17T15:44:47.984Z,15.81
2023-03-17T15:47:17.600Z,15.82
2023-03-17T15:49:46.820Z,15.79
2023-03-17T15:52:17.083Z,15.77
2023-03-17T15:54:46.153Z,15.75
2023-03-17T15:57:14.309Z,15.78
2023-03-17T15:59:44.162Z,15.71
2023-03-17T16:02:27.424Z,15.78
2023-03-17T16:04:56.226Z,15.84
2023-03-17T16:07:24.896Z,15.89
2023-03-17T16:09:53.255Z,15.94
2023-03-17T16:12:21.303Z,15.88
2023-03-17T16:14:51.541Z,15.80
2023-03-17T16:17:25.246Z,15.98
2023-03-17T16:19:55.838Z,15.99
2023-03-17T16:22:36.691Z,16.01
2023-03-17T16:25:05.887Z,15.77
2023-03-17T16:27:34.187Z,15.66
2023-03-17T16:30:04.304Z,15.62
2023-03-17T16:32:32.341Z,15.58
2023-03-17T16:35:00.584Z,15.46
2023-03-17T16:37:28.685Z,15.50
2023-03-17T16:39:58.003Z,15.44
2023-03-17T16:42:28.523Z,15.52
2023-03-17T16:44:57.639Z,15.33
2023-03-17T16:47:27.255Z,15.32
2023-03-17T16:49:55.690Z,15.29
2023-03-17T16:52:23.821Z,15.26
2023-03-17T16:54:52.049Z,15.08
2023-03-17T16:57:20.164Z,15.09
2023-03-17T16:59:48.560Z,15.14
2023-03-17T17:02:17.783Z,14.96
2023-03-17T17:04:47.587Z,15.02
2023-03-17T17:07:15.876Z,14.95
2023-03-17T17:09:44.625Z,14.92
2023-03-17T17:12:12.681Z,14.86
2023-03-17T17:14:41.441Z,14.81
2023-03-17T17:17:10.686Z,14.83
2023-03-17T17:19:38.996Z,14.84
2023-03-17T17:22:08.637Z,14.75
2023-03-17T17:24:37.096Z,14.73
2023-03-17T17:27:05.576Z,14.77
2023-03-17T17:29:33.948Z,14.68
2023-03-17T17:32:02.156Z,14.61
2023-03-17T17:34:30.451Z,14.51
2023-03-17T17:36:58.673Z,14.42
2023-03-17T17:39:28.302Z,14.38
2023-03-17T17:41:56.339Z,14.38
2023-03-17T17:44:24.660Z,14.34
2023-03-17T17:46:52.841Z,14.32
2023-03-17T17:49:21.291Z,14.33
2023-03-17T17:51:49.403Z,14.26
2023-03-17T17:54:17.725Z,14.25
2023-03-17T17:56:48.310Z,14.20
2023-03-17T17:59:16.724Z,14.18
2023-03-17T18:01:44.868Z,14.19
2023-03-17T18:04:13.640Z,14.17
2023-03-17T18:06:41.782Z,14.08
2023-03-17T18:09:10.203Z,14.07
2023-03-17T18:11:40.190Z,14.11
2023-03-17T18:14:10.348Z,14.12
2023-03-17T18:16:38.983Z,13.92
2023-03-17T18:19:09.594Z,13.84
2023-03-17T18:21:37.710Z,13.75
2023-03-17T18:24:06.739Z,13.72
2023-03-17T18:26:35.052Z,13.69
2023-03-17T18:29:03.602Z,13.75
2023-03-17T18:31:35.971Z,13.72
2023-03-17T18:34:07.168Z,13.66
2023-03-17T18:36:35.305Z,13.63
2023-03-17T18:39:04.048Z,13.64
2023-03-17T18:41:33.034Z,13.75
2023-03-17T18:44:02.333Z,13.66
2023-03-17T18:46:30.418Z,13.71
2023-03-17T18:49:00.380Z,13.71
2023-03-17T18:51:28.410Z,13.73
2023-03-17T18:53:56.824Z,13.75
2023-03-17T18:56:28.936Z,13.69
2023-03-17T18:58:57.798Z,13.74
2023-03-17T19:01:27.126Z,13.67
2023-03-17T19:03:55.536Z,13.59
2023-03-17T19:06:25.234Z,13.55
2023-03-17T19:08:54.173Z,13.45
2023-03-17T19:11:22.337Z,13.37
2023-03-17T19:13:52.437Z,13.32
2023-03-17T19:16:20.663Z,13.30
2023-03-17T19:18:49.053Z,13.19
2023-03-17T19:21:17.217Z,13.27
2023-03-17T19:23:49.578Z,13.27
2023-03-17T19:26:17.975Z,13.27
2023-03-17T19:28:46.986Z,13.27
2023-03-17T19:31:15.176Z,13.20
2023-03-17T19:33:43.556Z,13.20
2023-03-17T19:36:13.993Z,13.21
2023-03-17T19:38:47.085Z,13.19
2023-03-17T19:41:15.587Z,13.18
2023-03-17T19:43:44.054Z,13.20
2023-03-17T19:46:12.874Z,13.20
2023-03-17T19:48:41.884Z,13.16
2023-03-17T19:51:10.128Z,13.12
2023-03-17T19:53:38.861Z,13.06
2023-03-17T19:56:08.717Z,13.00
2023-03-17T19:58:37.430Z,12.99
2023-03-17T20:01:06.864Z,12.99
2023-03-17T20:03:38.926Z,13.02
2023-03-17T20:06:07.073Z,12.95
2023-03-17T20:08:36.654Z,13.05
2023-03-17T20:11:05.941Z,13.06
2023-03-17T20:13:37.524Z,13.06
2023-03-17T20:16:06.898Z,13.09
2023-03-17T20:18:35.280Z,13.07
2023-03-17T20:21:05.754Z,13.06
2023-03-17T20:23:35.439Z,13.03
2023-03-17T20:26:03.594Z,12.97
2023-03-17T20:28:32.478Z,12.95
2023-03-17T20:31:04.698Z,12.93
2023-03-17T20:33:34.265Z,12.90
2023-03-17T20:36:03.129Z,12.92
2023-03-17T20:38:33.241Z,12.90
2023-03-17T20:41:09.332Z,12.91
2023-03-17T20:43:38.451Z,12.87
2023-03-17T20:46:09.269Z,12.92
2023-03-17T20:48:38.089Z,12.97
2023-03-17T20:51:07.006Z,12.92
2023-03-17T20:53:36.130Z,13.00
2023-03-17T20:56:04.715Z,13.09
2023-03-17T20:58:33.710Z,13.10
2023-03-17T21:01:01.914Z,13.10
2023-03-17T21:03:32.267Z,13.11
2023-03-17T21:06:01.305Z,13.07
2023-03-17T21:08:29.446Z,13.08
2023-03-17T21:10:57.849Z,13.10
2023-03-17T21:13:26.231Z,13.12
2023-03-17T21:15:55.477Z,13.04
2023-03-17T21:18:25.753Z,13.06
2023-03-17T21:20:55.430Z,13.03
2023-03-17T21:23:23.894Z,13.00
2023-03-17T21:25:57.137Z,12.95
2023-03-17T21:28:25.338Z,12.98
2023-03-17T21:30:53.661Z,12.95
2023-03-17T21:33:22.024Z,12.92
2023-03-17T21:35:58.205Z,12.89
2023-03-17T21:38:28.043Z,12.87
2023-03-17T21:40:56.793Z,12.84
2023-03-17T21:43:25.589Z,12.75
2023-03-17T21:45:54.106Z,12.80
2023-03-17T21:48:22.170Z,12.79
2023-03-17T21:50:50.561Z,12.75
2023-03-17T21:53:20.150Z,12.76
2023-03-17T21:55:49.667Z,12.74
2023-03-17T21:58:17.805Z,12.74
2023-03-17T22:00:47.163Z,12.78
2023-03-17T22:03:15.866Z,12.76
2023-03-17T22:05:44.302Z,12.81
2023-03-17T22:08:12.412Z,12.75
2023-03-17T22:10:42.238Z,12.72
2023-03-17T22:13:10.356Z,12.68
2023-03-17T22:15:38.809Z,12.66
2023-03-17T22:18:07.003Z,12.63
2023-03-17T22:20:35.774Z,12.62
2023-03-17T22:23:03.979Z,12.58
2023-03-17T22:25:32.381Z,12.57
2023-03-17T22:28:01.760Z,12.62
2023-03-17T22:30:30.665Z,12.59
2023-03-17T22:32:59.075Z,12.71
2023-03-17T22:35:27.537Z,12.65
2023-03-17T22:37:56.419Z,12.60
2023-03-17T22:40:24.783Z,12.59
2023-03-17T22:42:52.908Z,12.65
2023-03-17T22:45:22.906Z,12.60
2023-03-17T22:47:51.584Z,12.57
2023-03-17T22:50:20.405Z,12.61
2023-03-17T22:52:48.575Z,12.54
2023-03-17T22:55:17.090Z,12.43
2023-03-17T22:57:45.459Z,12.47
2023-03-17T23:00:16.932Z,12.46
2023-03-17T23:02:47.244Z,12.48
2023-03-17T23:05:15.924Z,12.40
2023-03-17T23:07:51.893Z,12.36
2023-03-17T23:10:22.899Z,12.32
2023-03-17T23:12:51.739Z,12.41
2023-03-17T23:15:20.801Z,12.32
2023-03-17T23:17:50.265Z,12.30
2023-03-17T23:20:18.932Z,12.27
2023-03-17T23:22:47.087Z,12.24
2023-03-17T23:25:15.471Z,12.16
2023-03-17T23:27:43.667Z,12.10
2023-03-17T23:30:13.387Z,12.06
2023-03-17T23:32:41.733Z,11.99
2023-03-17T23:35:12.629Z,12.06
2023-03-17T23:37:41.389Z,12.03
2023-03-17T23:40:11.202Z,12.04
2023-03-17T23:42:39.259Z,12.08
2023-03-17T23:45:09.157Z,12.11
2023-03-17T23:47:38.168Z,12.15
2023-03-17T23:50:07.608Z,12.19
2023-03-17T23:52:37.281Z,12.22
2023-03-17T23:55:06.903Z,12.14
2023-03-17T23:57:37.040Z,12.24
